sensor_id;sensor_type;location;lat;lon;timestamp;pressure;altitude;pressure_sealevel;temperature;humidity
56944;BME280;42848;42.524;12.052;2024-03-23T00:55:44;96788.56;;;11.79;100.00
56944;BME280;42848;42.524;12.052;2024-03-23T00:58:10;96788.50;;;12.05;100.00
56944;BME280;42848;42.524;12.052;2024-03-23T01:00:36;96795.25;;;11.99;100.00
56944;BME280;42848;42.524;12.052;2024-03-23T01:03:01;96792.38;;;11.95;100.00
56944;BME280;42848;42.524;12.052;2024-03-23T01:05:27;96787.47;;;11.89;100.00
56944;BME280;42848;42.524;12.052;2024-03-23T01:07:52;96790.78;;;11.94;100.00
56944;BME280;42848;42.524;12.052;2024-03-23T01:10:18;96782.84;;;11.81;100.00
56944;BME280;42848;42.524;12.052;2024-03-23T01:12:44;96776.47;;;12.06;100.00
56944;BME280;42848;42.524;12.052;2024-03-23T01:15:09;96784.06;;;11.45;100.00
56944;BME280;42848;42.524;12.052;2024-03-23T01:17:35;96780.25;;;11.93;100.00
56944;BME280;42848;42.524;12.052;2024-03-23T01:20:01;96775.25;;;11.95;100.00
56944;BME280;42848;42.524;12.052;2024-03-23T01:22:26;96775.63;;;11.85;100.00
56944;BME280;42848;42.524;12.052;2024-03-23T01:24:52;96776.44;;;11.77;100.00
56944;BME280;42848;42.524;12.052;2024-03-23T01:27:17;96775.66;;;11.67;100.00
56944;BME280;42848;42.524;12.052;2024-03-23T01:29:43;96783.84;;;11.59;100.00
56944;BME280;42848;42.524;12.052;2024-03-23T01:32:09;96781.09;;;11.67;100.00
56944;BME280;42848;42.524;12.052;2024-03-23T01:34:35;96784.88;;;11.37;100.00
56944;BME280;42848;42.524;12.052;2024-03-23T01:37:01;96775.09;;;11.53;100.00
56944;BME280;42848;42.524;12.052;2024-03-23T01:39:26;96783.47;;;11.78;100.00
56944;BME280;42848;42.524;12.052;2024-03-23T01:41:52;96771.88;;;11.51;100.00
56944;BME280;42848;42.524;12.052;2024-03-23T01:44:18;96776.44;;;11.77;100.00
56944;BME280;42848;42.524;12.052;2024-03-23T01:46:44;96773.66;;;11.38;100.00
56944;BME280;42848;42.524;12.052;2024-03-23T01:49:10;96769.16;;;11.51;100.00
56944;BME280;42848;42.524;12.052;2024-03-23T01:51:37;96766.25;;;11.65;100.00
56944;BME280;42848;42.524;12.052;2024-03-23T01:54:04;96766.16;;;11.44;100.00
56944;BME280;42848;42.524;12.052;2024-03-23T01:56:34;96762.16;;;11.42;100.00
56944;BME280;42848;42.524;12.052;2024-03-23T01:59:03;96764.22;;;11.53;100.00
56944;BME280;42848;42.524;12.052;2024-03-23T02:01:29;96766.16;;;11.44;100.00
56944;BME280;42848;42.524;12.052;2024-03-23T02:03:55;96756.06;;;11.53;100.00
56944;BME280;42848;42.524;12.052;2024-03-23T02:06:21;96763.22;;;11.58;100.00
56944;BME280;42848;42.524;12.052;2024-03-23T02:08:48;96759.72;;;11.57;100.00
56944;BME280;42848;42.524;12.052;2024-03-23T02:11:13;96755.84;;;11.58;100.00
56944;BME280;42848;42.524;12.052;2024-03-23T02:13:39;96756.88;;;11.45;100.00
56944;BME280;42848;42.524;12.052;2024-03-23T02:16:05;96749.34;;;11.42;100.00
56944;BME280;42848;42.524;12.052;2024-03-23T02:18:32;96741.84;;;11.39;100.00
56944;BME280;42848;42.524;12.052;2024-03-23T02:20:58;96746.00;;;11.45;100.00
56944;BME280;42848;42.524;12.052;2024-03-23T02:23:23;96741.72;;;11.35;100.00
56944;BME280;42848;42.524;12.052;2024-03-23T02:25:50;96744.81;;;11.17;100.00
56944;BME280;42848;42.524;12.052;2024-03-23T02:28:16;96738.00;;;11.40;100.00
56944;BME280;42848;42.524;12.052;2024-03-23T02:30:43;96734.69;;;11.34;100.00
56944;BME280;42848;42.524;12.052;2024-03-23T02:33:08;96743.13;;;11.33;100.00
56944;BME280;42848;42.524;12.052;2024-03-23T02:35:34;96736.63;;;11.25;100.00
56944;BME280;42848;42.524;12.052;2024-03-23T02:38:00;96742.34;;;11.32;100.00
56944;BME280;42848;42.524;12.052;2024-03-23T02:40:27;96726.84;;;11.33;100.00
56944;BME280;42848;42.524;12.052;2024-03-23T02:42:53;96725.84;;;11.46;100.00
56944;BME280;42848;42.524;12.052;2024-03-23T02:45:18;96731.69;;;11.19;100.00
56944;BME280;42848;42.524;12.052;2024-03-23T02:47:44;96732.88;;;11.47;100.00
56944;BME280;42848;42.524;12.052;2024-03-23T02:50:09;96725.53;;;11.39;100.00
56944;BME280;42848;42.524;12.052;2024-03-23T02:52:36;96731.47;;;11.32;100.00
56944;BME280;42848;42.524;12.052;2024-03-23T02:55:03;96732.63;;;11.23;100.00
56944;BME280;42848;42.524;12.052;2024-03-23T02:57:29;96722.53;;;11.32;100.00
56944;BME280;42848;42.524;12.052;2024-03-23T02:59:55;96728.94;;;11.36;100.00
56944;BME280;42848;42.524;12.052;2024-03-23T03:02:21;96722.53;;;11.23;100.00
56944;BME280;42848;42.524;12.052;2024-03-23T03:04:47;96719.22;;;11.18;100.00
56944;BME280;42848;42.524;12.052;2024-03-23T03:07:13;96716.88;;;10.99;100.00
56944;BME280;42848;42.524;12.052;2024-03-23T03:09:39;96720.34;;;11.17;100.00
56944;BME280;42848;42.524;12.052;2024-03-23T03:12:08;96715.06;;;11.11;100.00
56944;BME280;42848;42.524;12.052;2024-03-23T03:14:34;96720.84;;;11.01;100.00
56944;BME280;42848;42.524;12.052;2024-03-23T03:17:00;96717.72;;;11.37;100.00
56944;BME280;42848;42.524;12.052;2024-03-23T03:19:26;96725.75;;;11.34;100.00
56944;BME280;42848;42.524;12.052;2024-03-23T03:21:51;96722.25;;;11.25;100.00
56944;BME280;42848;42.524;12.052;2024-03-23T03:24:17;96719.84;;;11.15;100.00
56944;BME280;42848;42.524;12.052;2024-03-23T03:26:43;96716.38;;;10.97;100.00
56944;BME280;42848;42.524;12.052;2024-03-23T03:29:09;96718.00;;;10.98;100.00
56944;BME280;42848;42.524;12.052;2024-03-23T03:31:35;96716.22;;;11.02;100.00
56944;BME280;42848;42.524;12.052;2024-03-23T03:34:02;96711.75;;;10.97;100.00
56944;BME280;42848;42.524;12.052;2024-03-23T03:36:28;96722.94;;;10.78;100.00
56944;BME280;42848;42.524;12.052;2024-03-23T03:38:53;96718.28;;;10.88;100.00
56944;BME280;42848;42.524;12.052;2024-03-23T03:41:19;96718.13;;;11.01;100.00
56944;BME280;42848;42.524;12.052;2024-03-23T03:43:44;96715.59;;;10.88;100.00
56944;BME280;42848;42.524;12.052;2024-03-23T03:46:10;96719.59;;;10.90;100.00
56944;BME280;42848;42.524;12.052;2024-03-23T03:48:37;96721.00;;;10.96;100.00
56944;BME280;42848;42.524;12.052;2024-03-23T03:51:03;96715.75;;;11.00;100.00
56944;BME280;42848;42.524;12.052;2024-03-23T03:53:29;96714.97;;;10.91;100.00
56944;BME280;42848;42.524;12.052;2024-03-23T03:55:55;96710.47;;;10.95;100.00
56944;BME280;42848;42.524;12.052;2024-03-23T03:58:21;96707.56;;;11.08;100.00
56944;BME280;42848;42.524;12.052;2024-03-23T04:00:47;96707.28;;;10.93;100.00
56944;BME280;42848;42.524;12.052;2024-03-23T04:03:12;96711.91;;;10.92;100.00
56944;BME280;42848;42.524;12.052;2024-03-23T04:05:38;96706.34;;;10.97;100.00
56944;BME280;42848;42.524;12.052;2024-03-23T04:08:05;96708.56;;;10.87;100.00
56944;BME280;42848;42.524;12.052;2024-03-23T04:10:34;96720.38;;;10.99;100.00
56944;BME280;42848;42.524;12.052;2024-03-23T04:13:00;96714.47;;;10.97;100.00
56944;BME280;42848;42.524;12.052;2024-03-23T04:15:26;96712.38;;;10.94;100.00
56944;BME280;42848;42.524;12.052;2024-03-23T04:17:52;96707.38;;;11.14;100.00
56944;BME280;42848;42.524;12.052;2024-03-23T04:20:18;96714.75;;;11.13;100.00
56944;BME280;42848;42.524;12.052;2024-03-23T04:22:43;96714.16;;;10.90;100.00
56944;BME280;42848;42.524;12.052;2024-03-23T04:25:09;96713.47;;;11.10;100.00
56944;BME280;42848;42.524;12.052;2024-03-23T04:27:37;96718.16;;;10.84;100.00
56944;BME280;42848;42.524;12.052;2024-03-23T04:30:03;96716.53;;;11.00;100.00
56944;BME280;42848;42.524;12.052;2024-03-23T04:32:35;96714.50;;;10.63;100.00
56944;BME280;42848;42.524;12.052;2024-03-23T04:35:00;96714.16;;;10.90;100.00
56944;BME280;42848;42.524;12.052;2024-03-23T04:37:26;96717.19;;;10.89;100.00
56944;BME280;42848;42.524;12.052;2024-03-23T04:39:51;96707.47;;;10.79;100.00
56944;BME280;42848;42.524;12.052;2024-03-23T04:42:18;96705.25;;;10.72;100.00
56944;BME280;42848;42.524;12.052;2024-03-23T04:44:43;96706.00;;;10.90;100.00
56944;BME280;42848;42.524;12.052;2024-03-23T04:47:10;96706.84;;;10.65;100.00
56944;BME280;42848;42.524;12.052;2024-03-23T04:49:36;96711.78;;;10.71;100.00
56944;BME280;42848;42.524;12.052;2024-03-23T04:52:04;96705.03;;;10.86;100.00
56944;BME280;42848;42.524;12.052;2024-03-23T04:54:30;96706.69;;;10.61;100.00
56944;BME280;42848;42.524;12.052;2024-03-23T04:56:57;96713.06;;;10.74;100.00
56944;BME280;42848;42.524;12.052;2024-03-23T04:59:23;96707.31;;;10.75;100.00
56944;BME280;42848;42.524;12.052;2024-03-23T05:01:48;96711.78;;;10.80;100.00
56944;BME280;42848;42.524;12.052;2024-03-23T05:04:14;96712.13;;;10.61;100.00
56944;BME280;42848;42.524;12.052;2024-03-23T05:06:40;96717.38;;;10.75;100.00
56944;BME280;42848;42.524;12.052;2024-03-23T05:09:05;96708.91;;;10.50;100.00
56944;BME280;42848;42.524;12.052;2024-03-23T05:11:41;96707.78;;;10.69;100.00
56944;BME280;42848;42.524;12.052;2024-03-23T05:14:11;96717.53;;;10.70;100.00
56944;BME280;42848;42.524;12.052;2024-03-23T05:16:37;96718.97;;;10.76;100.00
56944;BME280;42848;42.524;12.052;2024-03-23T05:19:03;96722.94;;;10.87;100.00
56944;BME280;42848;42.524;12.052;2024-03-23T05:21:28;96724.25;;;10.81;100.00
56944;BME280;42848;42.524;12.052;2024-03-23T05:23:55;96717.69;;;10.65;100.00
56944;BME280;42848;42.524;12.052;2024-03-23T05:26:22;96725.38;;;10.71;100.00
56944;BME280;42848;42.524;12.052;2024-03-23T05:28:48;96730.47;;;10.56;100.00
56944;BME280;42848;42.524;12.052;2024-03-23T05:31:28;96723.91;;;10.82;100.00
56944;BME280;42848;42.524;12.052;2024-03-23T05:33:55;96729.31;;;11.00;100.00
56944;BME280;42848;42.524;12.052;2024-03-23T05:36:21;96736.84;;;10.94;100.00
56944;BME280;42848;42.524;12.052;2024-03-23T05:38:47;96733.50;;;10.97;100.00
56944;BME280;42848;42.524;12.052;2024-03-23T05:41:13;96733.50;;;10.97;100.00
56944;BME280;42848;42.524;12.052;2024-03-23T05:43:39;96733.81;;;10.78;100.00
56944;BME280;42848;42.524;12.052;2024-03-23T05:46:05;96733.50;;;10.97;100.00
56944;BME280;42848;42.524;12.052;2024-03-23T05:48:31;96728.06;;;10.89;100.00
56944;BME280;42848;42.524;12.052;2024-03-23T05:50:57;96726.94;;;10.98;100.00
56944;BME280;42848;42.524;12.052;2024-03-23T05:53:24;96739.66;;;11.15;100.00
56944;BME280;42848;42.524;12.052;2024-03-23T05:55:51;96738.88;;;11.15;100.00
56944;BME280;42848;42.524;12.052;2024-03-23T05:58:19;96735.19;;;11.28;100.00
56944;BME280;42848;42.524;12.052;2024-03-23T06:00:46;96733.41;;;11.23;100.00
56944;BME280;42848;42.524;12.052;2024-03-23T06:03:11;96742.69;;;11.22;100.00
56944;BME280;42848;42.524;12.052;2024-03-23T06:05:38;96732.44;;;11.36;100.00
56944;BME280;42848;42.524;12.052;2024-03-23T06:08:04;96739.03;;;11.27;100.00
56944;BME280;42848;42.524;12.052;2024-03-23T06:10:30;96732.91;;;11.38;100.00
56944;BME280;42848;42.524;12.052;2024-03-23T06:12:57;96743.78;;;11.38;100.00
56944;BME280;42848;42.524;12.052;2024-03-23T06:15:24;96747.47;;;11.34;100.00
56944;BME280;42848;42.524;12.052;2024-03-23T06:17:50;96742.47;;;11.53;100.00
56944;BME280;42848;42.524;12.052;2024-03-23T06:20:15;96750.28;;;11.55;100.00
56944;BME280;42848;42.524;12.052;2024-03-23T06:22:41;96748.84;;;11.57;100.00
56944;BME280;42848;42.524;12.052;2024-03-23T06:25:07;96756.81;;;11.62;100.00
56944;BME280;42848;42.524;12.052;2024-03-23T06:27:33;96762.63;;;11.52;100.00
56944;BME280;42848;42.524;12.052;2024-03-23T06:30:01;96765.81;;;11.54;100.00
56944;BME280;42848;42.524;12.052;2024-03-23T06:32:28;96762.53;;;11.69;100.00
56944;BME280;42848;42.524;12.052;2024-03-23T06:34:56;96758.78;;;11.53;100.00
56944;BME280;42848;42.524;12.052;2024-03-23T06:37:22;96764.94;;;11.71;100.00
56944;BME280;42848;42.524;12.052;2024-03-23T06:39:48;96763.16;;;11.84;100.00
56944;BME280;42848;42.524;12.052;2024-03-23T06:42:13;96768.28;;;11.77;100.00
56944;BME280;42848;42.524;12.052;2024-03-23T06:44:39;96767.81;;;11.75;100.00
56944;BME280;42848;42.524;12.052;2024-03-23T06:47:05;96767.41;;;11.55;100.00
56944;BME280;42848;42.524;12.052;2024-03-23T06:49:31;96761.59;;;11.65;100.00
56944;BME280;42848;42.524;12.052;2024-03-23T06:51:56;96763.84;;;11.63;100.00
56944;BME280;42848;42.524;12.052;2024-03-23T06:54:22;96765.16;;;11.57;100.00
56944;BME280;42848;42.524;12.052;2024-03-23T06:56:47;96757.97;;;11.53;100.00
56944;BME280;42848;42.524;12.052;2024-03-23T06:59:13;96754.41;;;11.61;100.00
56944;BME280;42848;42.524;12.052;2024-03-23T07:01:39;96755.50;;;11.68;100.00
56944;BME280;42848;42.524;12.052;2024-03-23T07:04:04;96760.13;;;11.77;100.00
56944;BME280;42848;42.524;12.052;2024-03-23T07:06:31;96756.47;;;11.81;100.00
56944;BME280;42848;42.524;12.052;2024-03-23T07:08:57;96757.44;;;11.59;100.00
56944;BME280;42848;42.524;12.052;2024-03-23T07:11:23;96751.63;;;11.78;100.00
56944;BME280;42848;42.524;12.052;2024-03-23T07:13:50;96750.03;;;11.86;100.00
56944;BME280;42848;42.524;12.052;2024-03-23T07:16:16;96755.47;;;11.86;100.00
56944;BME280;42848;42.524;12.052;2024-03-23T07:18:42;96757.34;;;11.94;100.00
56944;BME280;42848;42.524;12.052;2024-03-23T07:21:08;96755.09;;;11.96;100.00
56944;BME280;42848;42.524;12.052;2024-03-23T07:23:37;96754.06;;;12.09;100.00
56944;BME280;42848;42.524;12.052;2024-03-23T07:26:04;96764.38;;;11.95;100.00
56944;BME280;42848;42.524;12.052;2024-03-23T07:28:31;96768.97;;;11.65;100.00
56944;BME280;42848;42.524;12.052;2024-03-23T07:31:07;96765.09;;;11.83;100.00
56944;BME280;42848;42.524;12.052;2024-03-23T07:33:47;96767.41;;;11.55;100.00
56944;BME280;42848;42.524;12.052;2024-03-23T07:36:14;96777.00;;;11.53;100.00
56944;BME280;42848;42.524;12.052;2024-03-23T07:38:43;96766.44;;;11.51;100.00
56944;BME280;42848;42.524;12.052;2024-03-23T07:41:15;96773.97;;;11.54;100.00
56944;BME280;42848;42.524;12.052;2024-03-23T07:43:46;96770.84;;;11.82;100.00
56944;BME280;42848;42.524;12.052;2024-03-23T07:46:12;96768.47;;;11.80;100.00
56944;BME280;42848;42.524;12.052;2024-03-23T07:48:39;96764.53;;;11.99;100.00
56944;BME280;42848;42.524;12.052;2024-03-23T07:51:07;96767.81;;;11.83;100.00
56944;BME280;42848;42.524;12.052;2024-03-23T07:53:35;96765.16;;;11.57;100.00
56944;BME280;42848;42.524;12.052;2024-03-23T07:56:06;96768.09;;;11.90;100.00
56944;BME280;42848;42.524;12.052;2024-03-23T07:58:33;96765.19;;;11.95;100.00
56944;BME280;42848;42.524;12.052;2024-03-23T08:01:10;96761.88;;;11.90;100.00
56944;BME280;42848;42.524;12.052;2024-03-23T08:03:36;96758.56;;;12.05;100.00
56944;BME280;42848;42.524;12.052;2024-03-23T08:08:39;96761.56;;;11.83;100.00
56944;BME280;42848;42.524;12.052;2024-03-23T08:11:05;96756.94;;;11.75;100.00
56944;BME280;42848;42.524;12.052;2024-03-23T08:13:32;96745.38;;;12.16;100.00
56944;BME280;42848;42.524;12.052;2024-03-23T08:16:02;96751.47;;;12.13;100.00
56944;BME280;42848;42.524;12.052;2024-03-23T08:18:29;96749.47;;;12.31;100.00
56944;BME280;42848;42.524;12.052;2024-03-23T08:21:02;96757.06;;;12.46;100.00
56944;BME280;42848;42.524;12.052;2024-03-23T08:23:30;96761.00;;;12.28;100.00
56944;BME280;42848;42.524;12.052;2024-03-23T08:26:00;96770.56;;;12.34;100.00
56944;BME280;42848;42.524;12.052;2024-03-23T08:28:27;96768.09;;;12.20;100.00
56944;BME280;42848;42.524;12.052;2024-03-23T08:30:54;96772.03;;;12.31;100.00
56944;BME280;42848;42.524;12.052;2024-03-23T08:33:20;96771.53;;;12.38;100.00
56944;BME280;42848;42.524;12.052;2024-03-23T08:35:59;96774.03;;;12.43;100.00
56944;BME280;42848;42.524;12.052;2024-03-23T08:38:27;96768.75;;;12.46;100.00
56944;BME280;42848;42.524;12.052;2024-03-23T08:41:01;96768.88;;;12.50;100.00
56944;BME280;42848;42.524;12.052;2024-03-23T08:43:28;96756.38;;;12.70;100.00
56944;BME280;42848;42.524;12.052;2024-03-23T08:48:33;96739.00;;;12.62;100.00
56944;BME280;42848;42.524;12.052;2024-03-23T08:51:07;96735.56;;;12.53;100.00
56944;BME280;42848;42.524;12.052;2024-03-23T08:53:34;96729.28;;;12.73;100.00
56944;BME280;42848;42.524;12.052;2024-03-23T08:56:00;96728.91;;;12.63;100.00
56944;BME280;42848;42.524;12.052;2024-03-23T08:58:27;96716.41;;;12.82;100.00
56944;BME280;42848;42.524;12.052;2024-03-23T09:00:54;96715.22;;;12.71;100.00
56944;BME280;42848;42.524;12.052;2024-03-23T09:03:26;96712.56;;;12.63;100.00
56944;BME280;42848;42.524;12.052;2024-03-23T09:05:52;96704.94;;;12.56;100.00
56944;BME280;42848;42.524;12.052;2024-03-23T09:08:18;96718.31;;;12.82;100.00
56944;BME280;42848;42.524;12.052;2024-03-23T09:10:45;96710.94;;;12.82;100.00
56944;BME280;42848;42.524;12.052;2024-03-23T09:13:11;96706.41;;;12.87;100.00
56944;BME280;42848;42.524;12.052;2024-03-23T09:15:46;96708.00;;;12.88;100.00
56944;BME280;42848;42.524;12.052;2024-03-23T09:18:12;96706.75;;;12.85;100.00
56944;BME280;42848;42.524;12.052;2024-03-23T09:20:37;96686.00;;;12.93;100.00
56944;BME280;42848;42.524;12.052;2024-03-23T09:23:04;96684.81;;;13.15;100.00
56944;BME280;42848;42.524;12.052;2024-03-23T09:25:29;96681.81;;;13.28;100.00
56944;BME280;42848;42.524;12.052;2024-03-23T09:27:55;96681.53;;;13.09;100.00
56944;BME280;42848;42.524;12.052;2024-03-23T09:30:21;96685.00;;;13.30;100.00
56944;BME280;42848;42.524;12.052;2024-03-23T09:32:46;96676.63;;;13.35;100.00
56944;BME280;42848;42.524;12.052;2024-03-23T09:35:12;96680.16;;;13.15;100.00
56944;BME280;42848;42.524;12.052;2024-03-23T09:37:56;96677.72;;;13.34;100.00
56944;BME280;42848;42.524;12.052;2024-03-23T09:40:22;96663.78;;;13.36;100.00
56944;BME280;42848;42.524;12.052;2024-03-23T09:42:51;96664.44;;;13.33;100.00
56944;BME280;42848;42.524;12.052;2024-03-23T09:45:21;96659.94;;;13.16;100.00
56944;BME280;42848;42.524;12.052;2024-03-23T09:47:47;96659.78;;;13.33;100.00
56944;BME280;42848;42.524;12.052;2024-03-23T09:50:14;96659.66;;;13.30;100.00
56944;BME280;42848;42.524;12.052;2024-03-23T09:52:40;96660.28;;;13.15;100.00
56944;BME280;42848;42.524;12.052;2024-03-23T09:55:08;96670.47;;;13.38;100.00
56944;BME280;42848;42.524;12.052;2024-03-23T09:57:34;96666.72;;;13.31;100.00
56944;BME280;42848;42.524;12.052;2024-03-23T10:00:00;96658.66;;;13.47;100.00
56944;BME280;42848;42.524;12.052;2024-03-23T10:02:26;96655.91;;;13.22;100.00
56944;BME280;42848;42.524;12.052;2024-03-23T10:04:53;96648.66;;;13.26;100.00
56944;BME280;42848;42.524;12.052;2024-03-23T10:07:20;96647.41;;;13.48;100.00
56944;BME280;42848;42.524;12.052;2024-03-23T10:09:45;96648.44;;;13.68;100.00
56944;BME280;42848;42.524;12.052;2024-03-23T10:12:17;96640.59;;;13.79;100.00
56944;BME280;42848;42.524;12.052;2024-03-23T10:14:43;96642.66;;;13.82;100.00
56944;BME280;42848;42.524;12.052;2024-03-23T10:17:16;96650.59;;;13.87;100.00
56944;BME280;42848;42.524;12.052;2024-03-23T10:19:49;96643.69;;;13.65;100.00
56944;BME280;42848;42.524;12.052;2024-03-23T10:22:18;96627.06;;;13.58;100.00
56944;BME280;42848;42.524;12.052;2024-03-23T10:24:44;96629.41;;;13.96;100.00
56944;BME280;42848;42.524;12.052;2024-03-23T10:27:09;96626.16;;;13.90;100.00
56944;BME280;42848;42.524;12.052;2024-03-23T10:29:39;96622.03;;;14.09;100.00
56944;BME280;42848;42.524;12.052;2024-03-23T10:32:11;96626.41;;;14.26;100.00
56944;BME280;42848;42.524;12.052;2024-03-23T10:34:38;96609.47;;;14.20;100.00
56944;BME280;42848;42.524;12.052;2024-03-23T10:37:05;96621.06;;;14.29;100.00
56944;BME280;42848;42.524;12.052;2024-03-23T10:39:36;96618.50;;;14.48;100.00
56944;BME280;42848;42.524;12.052;2024-03-23T10:42:04;96612.75;;;14.26;100.00
56944;BME280;42848;42.524;12.052;2024-03-23T10:44:31;96608.22;;;14.58;100.00
56944;BME280;42848;42.524;12.052;2024-03-23T10:46:58;96598.13;;;14.74;100.00
56944;BME280;42848;42.524;12.052;2024-03-23T10:49:32;96597.13;;;14.38;100.00
56944;BME280;42848;42.524;12.052;2024-03-23T10:52:02;96582.06;;;14.16;100.00
56944;BME280;42848;42.524;12.052;2024-03-23T10:54:30;96583.34;;;14.35;100.00
56944;BME280;42848;42.524;12.052;2024-03-23T10:57:02;96571.84;;;14.41;100.00
56944;BME280;42848;42.524;12.052;2024-03-23T10:59:32;96567.19;;;14.70;100.00
56944;BME280;42848;42.524;12.052;2024-03-23T11:02:05;96568.97;;;14.78;100.00
56944;BME280;42848;42.524;12.052;2024-03-23T11:04:35;96581.56;;;14.67;100.00
56944;BME280;42848;42.524;12.052;2024-03-23T11:07:01;96570.22;;;14.52;100.00
56944;BME280;42848;42.524;12.052;2024-03-23T11:09:41;96570.97;;;14.37;100.00
56944;BME280;42848;42.524;12.052;2024-03-23T11:17:24;96568.56;;;14.48;100.00
56944;BME280;42848;42.524;12.052;2024-03-23T11:20:01;96562.94;;;14.44;100.00
56944;BME280;42848;42.524;12.052;2024-03-23T11:25:24;96574.84;;;14.64;100.00
56944;BME280;42848;42.524;12.052;2024-03-23T11:27:58;96568.75;;;14.71;100.00
56944;BME280;42848;42.524;12.052;2024-03-23T11:30:27;96571.50;;;14.71;100.00
56944;BME280;42848;42.524;12.052;2024-03-23T11:32:55;96562.22;;;14.60;100.00
56944;BME280;42848;42.524;12.052;2024-03-23T11:35:34;96570.72;;;14.86;100.00
56944;BME280;42848;42.524;12.052;2024-03-23T11:38:07;96562.94;;;14.57;100.00
56944;BME280;42848;42.524;12.052;2024-03-23T11:40:34;96567.75;;;14.35;100.00
56944;BME280;42848;42.524;12.052;2024-03-23T11:43:04;96565.22;;;14.55;100.00
56944;BME280;42848;42.524;12.052;2024-03-23T11:45:35;96559.69;;;14.67;100.00
56944;BME280;42848;42.524;12.052;2024-03-23T11:48:07;96562.28;;;14.91;100.00
56944;BME280;42848;42.524;12.052;2024-03-23T11:50:36;96552.56;;;14.78;100.00
56944;BME280;42848;42.524;12.052;2024-03-23T11:55:55;96551.50;;;14.67;100.00
56944;BME280;42848;42.524;12.052;2024-03-23T11:58:22;96551.81;;;14.49;100.00
56944;BME280;42848;42.524;12.052;2024-03-23T12:03:19;96544.63;;;14.73;100.00
56944;BME280;42848;42.524;12.052;2024-03-23T12:05:52;96533.06;;;14.79;100.00
56944;BME280;42848;42.524;12.052;2024-03-23T12:08:34;96539.63;;;14.75;100.00
56944;BME280;42848;42.524;12.052;2024-03-23T12:11:14;96536.50;;;14.61;100.00
56944;BME280;42848;42.524;12.052;2024-03-23T12:13:41;96540.47;;;14.79;100.00
56944;BME280;42848;42.524;12.052;2024-03-23T12:16:21;96530.34;;;14.95;100.00
56944;BME280;42848;42.524;12.052;2024-03-23T12:18:50;96541.19;;;15.07;100.00
56944;BME280;42848;42.524;12.052;2024-03-23T12:21:18;96528.25;;;14.73;100.00
56944;BME280;42848;42.524;12.052;2024-03-23T12:23:44;96519.59;;;14.71;100.00
56944;BME280;42848;42.524;12.052;2024-03-23T12:26:12;96523.03;;;14.84;100.00
56944;BME280;42848;42.524;12.052;2024-03-23T12:28:38;96523.03;;;14.84;100.00
56944;BME280;42848;42.524;12.052;2024-03-23T12:31:04;96521.00;;;14.96;100.00
56944;BME280;42848;42.524;12.052;2024-03-23T12:33:31;96527.19;;;14.93;100.00
56944;BME280;42848;42.524;12.052;2024-03-23T12:35:57;96533.53;;;14.97;100.00
56944;BME280;42848;42.524;12.052;2024-03-23T12:38:22;96523.13;;;14.87;100.00
56944;BME280;42848;42.524;12.052;2024-03-23T12:40:51;96528.97;;;15.01;100.00
56944;BME280;42848;42.524;12.052;2024-03-23T12:43:18;96530.72;;;15.10;100.00
56944;BME280;42848;42.524;12.052;2024-03-23T12:45:47;96526.47;;;14.96;100.00
56944;BME280;42848;42.524;12.052;2024-03-23T12:48:13;96526.38;;;14.77;100.00
56944;BME280;42848;42.524;12.052;2024-03-23T12:50:38;96518.72;;;14.98;100.00
56944;BME280;42848;42.524;12.052;2024-03-23T12:53:04;96521.81;;;14.97;100.00
56944;BME280;42848;42.524;12.052;2024-03-23T12:55:29;96517.22;;;14.85;100.00
56944;BME280;42848;42.524;12.052;2024-03-23T12:57:55;96517.13;;;14.97;100.00
56944;BME280;42848;42.524;12.052;2024-03-23T13:00:21;96518.16;;;15.08;100.00
56944;BME280;42848;42.524;12.052;2024-03-23T13:02:47;96524.16;;;15.30;100.00
56944;BME280;42848;42.524;12.052;2024-03-23T13:05:13;96508.31;;;15.20;100.00
56944;BME280;42848;42.524;12.052;2024-03-23T13:07:39;96513.25;;;14.98;100.00
56944;BME280;42848;42.524;12.052;2024-03-23T13:10:05;96510.06;;;14.80;100.00
56944;BME280;42848;42.524;12.052;2024-03-23T13:12:32;96513.41;;;15.37;100.00
56944;BME280;42848;42.524;12.052;2024-03-23T13:15:01;96515.13;;;15.10;100.00
56944;BME280;42848;42.524;12.052;2024-03-23T13:17:27;96515.13;;;15.10;100.00
56944;BME280;42848;42.524;12.052;2024-03-23T13:19:54;96506.84;;;14.91;100.00
56944;BME280;42848;42.524;12.052;2024-03-23T13:22:20;96530.53;;;15.02;100.00
56944;BME280;42848;42.524;12.052;2024-03-23T13:24:46;96529.94;;;15.09;100.00
56944;BME280;42848;42.524;12.052;2024-03-23T13:27:12;96529.09;;;15.40;100.00
56944;BME280;42848;42.524;12.052;2024-03-23T13:29:37;96523.66;;;15.08;100.00
56944;BME280;42848;42.524;12.052;2024-03-23T13:32:03;96523.13;;;15.03;100.00
56944;BME280;42848;42.524;12.052;2024-03-23T13:34:29;96511.47;;;15.22;100.00
56944;BME280;42848;42.524;12.052;2024-03-23T13:36:55;96530.06;;;15.48;100.00
56944;BME280;42848;42.524;12.052;2024-03-23T13:39:24;96536.94;;;15.42;100.00
56944;BME280;42848;42.524;12.052;2024-03-23T13:41:51;96530.50;;;15.34;100.00
56944;BME280;42848;42.524;12.052;2024-03-23T13:44:16;96535.47;;;15.13;100.00
56944;BME280;42848;42.524;12.052;2024-03-23T13:46:43;96534.22;;;15.26;100.00
56944;BME280;42848;42.524;12.052;2024-03-23T13:49:30;96528.78;;;14.94;100.00
56944;BME280;42848;42.524;12.052;2024-03-23T13:51:58;96529.94;;;15.09;100.00
56944;BME280;42848;42.524;12.052;2024-03-23T13:54:25;96520.66;;;14.82;100.00